sensor_id;sensor_type;location;lat;lon;timestamp;P1;P2;P0
21358;PMS7003;13506;50.852;20.632;2022-08-19T00:01:22;42.00;33.25;21.25
21358;PMS7003;13506;50.852;20.632;2022-08-19T00:03:50;36.00;31.25;21.50
21358;PMS7003;13506;50.852;20.632;2022-08-19T00:06:17;39.50;31.50;21.75
21358;PMS7003;13506;50.852;20.632;2022-08-19T00:08:45;37.75;32.75;22.00
21358;PMS7003;13506;50.852;20.632;2022-08-19T00:11:13;37.00;32.00;21.75
21358;PMS7003;13506;50.852;20.632;2022-08-19T00:13:41;38.50;32.50;20.75
21358;PMS7003;13506;50.852;20.632;2022-08-19T00:16:09;41.75;33.75;22.50
21358;PMS7003;13506;50.852;20.632;2022-08-19T00:18:36;40.50;32.50;22.00
21358;PMS7003;13506;50.852;20.632;2022-08-19T00:21:04;38.50;32.75;22.00
21358;PMS7003;13506;50.852;20.632;2022-08-19T00:23:34;43.00;35.50;22.75
21358;PMS7003;13506;50.852;20.632;2022-08-19T00:26:02;37.50;32.25;22.25
21358;PMS7003;13506;50.852;20.632;2022-08-19T00:28:30;37.00;32.00;22.00
21358;PMS7003;13506;50.852;20.632;2022-08-19T00:31:02;40.75;34.25;21.75
21358;PMS7003;13506;50.852;20.632;2022-08-19T00:33:31;40.00;33.75;22.00
21358;PMS7003;13506;50.852;20.632;2022-08-19T00:35:59;36.50;32.50;22.00
21358;PMS7003;13506;50.852;20.632;2022-08-19T00:38:27;38.75;31.75;22.00
21358;PMS7003;13506;50.852;20.632;2022-08-19T00:40:55;42.50;34.75;22.25
21358;PMS7003;13506;50.852;20.632;2022-08-19T00:43:23;42.50;33.00;22.00
21358;PMS7003;13506;50.852;20.632;2022-08-19T00:45:53;36.00;31.75;21.25
21358;PMS7003;13506;50.852;20.632;2022-08-19T00:48:21;39.50;31.25;21.25
21358;PMS7003;13506;50.852;20.632;2022-08-19T00:50:49;35.50;31.75;22.00
21358;PMS7003;13506;50.852;20.632;2022-08-19T00:53:22;44.75;34.25;22.25
21358;PMS7003;13506;50.852;20.632;2022-08-19T00:55:54;41.50;32.25;22.00
21358;PMS7003;13506;50.852;20.632;2022-08-19T00:58:27;39.25;32.25;22.00
21358;PMS7003;13506;50.852;20.632;2022-08-19T01:00:59;36.50;32.75;21.75
21358;PMS7003;13506;50.852;20.632;2022-08-19T01:03:29;39.75;34.50;22.00
21358;PMS7003;13506;50.852;20.632;2022-08-19T01:05:56;44.75;35.50;22.50
21358;PMS7003;13506;50.852;20.632;2022-08-19T01:08:25;39.75;31.50;20.25
21358;PMS7003;13506;50.852;20.632;2022-08-19T01:10:54;36.75;34.00;22.75
21358;PMS7003;13506;50.852;20.632;2022-08-19T01:13:26;36.75;32.75;20.50
21358;PMS7003;13506;50.852;20.632;2022-08-19T01:15:59;39.50;32.50;20.75
21358;PMS7003;13506;50.852;20.632;2022-08-19T01:18:31;38.00;32.50;21.50
21358;PMS7003;13506;50.852;20.632;2022-08-19T01:21:05;43.00;33.00;22.00
21358;PMS7003;13506;50.852;20.632;2022-08-19T01:23:41;38.50;32.50;21.50
21358;PMS7003;13506;50.852;20.632;2022-08-19T01:26:10;35.25;31.50;21.50
21358;PMS7003;13506;50.852;20.632;2022-08-19T01:28:40;37.50;32.75;22.00
21358;PMS7003;13506;50.852;20.632;2022-08-19T01:31:09;39.75;34.00;23.00
21358;PMS7003;13506;50.852;20.632;2022-08-19T01:33:39;38.50;31.75;20.25
21358;PMS7003;13506;50.852;20.632;2022-08-19T01:36:07;37.25;30.25;19.75
21358;PMS7003;13506;50.852;20.632;2022-08-19T01:38:38;43.00;33.00;22.00
21358;PMS7003;13506;50.852;20.632;2022-08-19T01:41:10;34.50;31.50;22.00
21358;PMS7003;13506;50.852;20.632;2022-08-19T01:43:39;41.50;34.25;22.25
21358;PMS7003;13506;50.852;20.632;2022-08-19T01:46:06;40.00;32.50;20.75
21358;PMS7003;13506;50.852;20.632;2022-08-19T01:48:34;41.50;34.00;22.50
21358;PMS7003;13506;50.852;20.632;2022-08-19T01:51:03;37.00;32.25;22.00
21358;PMS7003;13506;50.852;20.632;2022-08-19T01:53:31;40.25;32.75;22.50
21358;PMS7003;13506;50.852;20.632;2022-08-19T01:56:02;37.00;31.75;21.00
21358;PMS7003;13506;50.852;20.632;2022-08-19T01:58:31;39.50;32.25;22.25
21358;PMS7003;13506;50.852;20.632;2022-08-19T02:01:04;42.75;34.75;22.00
21358;PMS7003;13506;50.852;20.632;2022-08-19T02:03:33;38.25;32.50;21.50
21358;PMS7003;13506;50.852;20.632;2022-08-19T02:06:01;37.25;32.25;21.75
21358;PMS7003;13506;50.852;20.632;2022-08-19T02:08:31;37.75;31.75;21.25
21358;PMS7003;13506;50.852;20.632;2022-08-19T02:11:04;41.50;35.00;22.75
21358;PMS7003;13506;50.852;20.632;2022-08-19T02:13:33;43.00;35.75;22.75
21358;PMS7003;13506;50.852;20.632;2022-08-19T02:16:02;35.75;32.50;21.25
21358;PMS7003;13506;50.852;20.632;2022-08-19T02:18:30;41.00;33.75;21.75
21358;PMS7003;13506;50.852;20.632;2022-08-19T02:20:59;39.00;32.50;22.00
21358;PMS7003;13506;50.852;20.632;2022-08-19T02:23:26;44.00;35.25;23.75
21358;PMS7003;13506;50.852;20.632;2022-08-19T02:25:53;36.50;32.00;21.75
21358;PMS7003;13506;50.852;20.632;2022-08-19T02:28:23;41.50;34.50;23.75
21358;PMS7003;13506;50.852;20.632;2022-08-19T02:30:50;39.50;34.50;22.50
21358;PMS7003;13506;50.852;20.632;2022-08-19T02:33:17;43.50;35.00;22.50
21358;PMS7003;13506;50.852;20.632;2022-08-19T02:35:45;39.25;33.50;21.75
21358;PMS7003;13506;50.852;20.632;2022-08-19T02:38:14;42.25;33.25;22.25
21358;PMS7003;13506;50.852;20.632;2022-08-19T02:40:55;40.00;34.75;21.75
21358;PMS7003;13506;50.852;20.632;2022-08-19T02:43:28;38.25;33.75;22.00
21358;PMS7003;13506;50.852;20.632;2022-08-19T02:45:57;38.75;32.00;22.00
21358;PMS7003;13506;50.852;20.632;2022-08-19T02:48:25;38.75;34.00;22.00
21358;PMS7003;13506;50.852;20.632;2022-08-19T02:50:52;38.00;32.00;21.75
21358;PMS7003;13506;50.852;20.632;2022-08-19T02:53:22;41.75;34.50;24.00
21358;PMS7003;13506;50.852;20.632;2022-08-19T02:55:51;41.00;33.25;22.25
21358;PMS7003;13506;50.852;20.632;2022-08-19T02:58:19;42.50;35.00;22.75
21358;PMS7003;13506;50.852;20.632;2022-08-19T03:00:50;37.75;33.75;22.25
21358;PMS7003;13506;50.852;20.632;2022-08-19T03:03:20;37.75;32.75;22.50
21358;PMS7003;13506;50.852;20.632;2022-08-19T03:05:48;37.50;33.00;22.50
21358;PMS7003;13506;50.852;20.632;2022-08-19T03:08:16;40.50;34.75;21.50
21358;PMS7003;13506;50.852;20.632;2022-08-19T03:10:44;38.75;32.50;21.00
21358;PMS7003;13506;50.852;20.632;2022-08-19T03:13:13;43.00;34.75;22.50
21358;PMS7003;13506;50.852;20.632;2022-08-19T03:15:44;42.25;34.75;22.50
21358;PMS7003;13506;50.852;20.632;2022-08-19T03:18:15;38.25;33.50;22.00
21358;PMS7003;13506;50.852;20.632;2022-08-19T03:20:43;38.00;32.25;20.25
21358;PMS7003;13506;50.852;20.632;2022-08-19T03:23:12;33.00;30.50;22.00
21358;PMS7003;13506;50.852;20.632;2022-08-19T03:25:42;40.75;33.50;22.00
21358;PMS7003;13506;50.852;20.632;2022-08-19T03:28:14;37.00;32.75;21.75
21358;PMS7003;13506;50.852;20.632;2022-08-19T03:30:42;42.50;36.00;22.00
21358;PMS7003;13506;50.852;20.632;2022-08-19T03:33:24;43.00;33.50;22.00
21358;PMS7003;13506;50.852;20.632;2022-08-19T03:35:59;42.00;35.50;22.50
21358;PMS7003;13506;50.852;20.632;2022-08-19T03:38:34;39.25;34.75;23.00
21358;PMS7003;13506;50.852;20.632;2022-08-19T03:41:04;41.75;35.25;22.75
21358;PMS7003;13506;50.852;20.632;2022-08-19T03:43:34;45.00;35.25;22.00
21358;PMS7003;13506;50.852;20.632;2022-08-19T03:46:04;38.50;34.00;23.00
21358;PMS7003;13506;50.852;20.632;2022-08-19T03:48:37;43.75;34.00;22.00
21358;PMS7003;13506;50.852;20.632;2022-08-19T03:51:06;38.25;33.00;21.75
21358;PMS7003;13506;50.852;20.632;2022-08-19T03:53:42;43.50;32.25;22.00
21358;PMS7003;13506;50.852;20.632;2022-08-19T03:56:10;42.00;34.50;22.00
21358;PMS7003;13506;50.852;20.632;2022-08-19T03:58:38;39.50;34.00;21.75
21358;PMS7003;13506;50.852;20.632;2022-08-19T04:01:07;40.75;34.50;22.00
21358;PMS7003;13506;50.852;20.632;2022-08-19T04:03:38;43.50;34.25;22.75
21358;PMS7003;13506;50.852;20.632;2022-08-19T04:06:09;39.25;33.75;23.00
21358;PMS7003;13506;50.852;20.632;2022-08-19T04:08:39;44.75;36.50;24.00
21358;PMS7003;13506;50.852;20.632;2022-08-19T04:11:07;40.50;34.75;22.25
21358;PMS7003;13506;50.852;20.632;2022-08-19T04:13:35;40.50;32.75;21.75
21358;PMS7003;13506;50.852;20.632;2022-08-19T04:16:04;39.75;33.75;22.50
21358;PMS7003;13506;50.852;20.632;2022-08-19T04:18:35;40.25;35.50;23.00
21358;PMS7003;13506;50.852;20.632;2022-08-19T04:21:06;41.75;33.25;23.25
21358;PMS7003;13506;50.852;20.632;2022-08-19T04:23:34;46.00;35.75;23.25
21358;PMS7003;13506;50.852;20.632;2022-08-19T04:26:02;43.75;34.25;23.00
21358;PMS7003;13506;50.852;20.632;2022-08-19T04:28:30;42.75;35.00;23.75
21358;PMS7003;13506;50.852;20.632;2022-08-19T04:30:57;41.75;33.50;22.75
21358;PMS7003;13506;50.852;20.632;2022-08-19T04:33:25;40.75;35.50;23.50
21358;PMS7003;13506;50.852;20.632;2022-08-19T04:35:55;43.50;33.75;23.00
21358;PMS7003;13506;50.852;20.632;2022-08-19T04:38:23;40.25;33.75;22.25
21358;PMS7003;13506;50.852;20.632;2022-08-19T04:40:51;41.00;33.50;22.75
21358;PMS7003;13506;50.852;20.632;2022-08-19T04:43:37;40.25;34.25;23.25
21358;PMS7003;13506;50.852;20.632;2022-08-19T04:46:05;38.00;33.50;22.00
21358;PMS7003;13506;50.852;20.632;2022-08-19T04:48:33;39.50;34.00;22.00
21358;PMS7003;13506;50.852;20.632;2022-08-19T04:51:05;40.75;32.75;21.25
21358;PMS7003;13506;50.852;20.632;2022-08-19T04:53:37;42.25;35.00;22.25
21358;PMS7003;13506;50.852;20.632;2022-08-19T04:56:08;36.75;31.75;21.25
21358;PMS7003;13506;50.852;20.632;2022-08-19T04:58:39;40.25;34.50;23.50
21358;PMS7003;13506;50.852;20.632;2022-08-19T05:01:09;38.75;33.75;22.75
21358;PMS7003;13506;50.852;20.632;2022-08-19T05:03:39;41.00;33.25;22.25
21358;PMS7003;13506;50.852;20.632;2022-08-19T05:06:08;38.50;33.00;21.75
21358;PMS7003;13506;50.852;20.632;2022-08-19T05:08:39;40.75;32.25;21.75
21358;PMS7003;13506;50.852;20.632;2022-08-19T05:11:09;40.75;33.50;22.00
21358;PMS7003;13506;50.852;20.632;2022-08-19T05:13:38;38.00;33.00;20.75
21358;PMS7003;13506;50.852;20.632;2022-08-19T05:16:09;41.25;35.00;22.75
21358;PMS7003;13506;50.852;20.632;2022-08-19T05:18:38;38.00;32.00;20.75
21358;PMS7003;13506;50.852;20.632;2022-08-19T05:21:26;38.75;33.25;21.50
21358;PMS7003;13506;50.852;20.632;2022-08-19T05:24:12;34.75;31.25;20.25
21358;PMS7003;13506;50.852;20.632;2022-08-19T05:26:42;34.75;30.75;20.00
21358;PMS7003;13506;50.852;20.632;2022-08-19T05:29:12;42.75;35.00;24.00
21358;PMS7003;13506;50.852;20.632;2022-08-19T05:31:40;44.75;36.75;22.75
21358;PMS7003;13506;50.852;20.632;2022-08-19T05:34:08;43.25;31.75;20.75
21358;PMS7003;13506;50.852;20.632;2022-08-19T05:36:39;35.25;30.75;20.75
21358;PMS7003;13506;50.852;20.632;2022-08-19T05:39:11;35.75;31.00;20.75
21358;PMS7003;13506;50.852;20.632;2022-08-19T05:41:41;40.00;32.00;22.00
21358;PMS7003;13506;50.852;20.632;2022-08-19T05:44:09;37.50;30.50;21.00
21358;PMS7003;13506;50.852;20.632;2022-08-19T05:46:37;37.00;30.25;20.00
21358;PMS7003;13506;50.852;20.632;2022-08-19T05:49:06;35.75;30.50;21.25
21358;PMS7003;13506;50.852;20.632;2022-08-19T05:51:35;35.00;30.75;20.75
21358;PMS7003;13506;50.852;20.632;2022-08-19T05:54:05;37.25;32.00;21.00
21358;PMS7003;13506;50.852;20.632;2022-08-19T05:56:34;34.75;30.00;20.00
21358;PMS7003;13506;50.852;20.632;2022-08-19T05:59:03;40.00;32.75;21.00
21358;PMS7003;13506;50.852;20.632;2022-08-19T06:01:34;37.50;32.25;20.75
21358;PMS7003;13506;50.852;20.632;2022-08-19T06:04:02;41.00;33.75;21.75
21358;PMS7003;13506;50.852;20.632;2022-08-19T06:06:30;37.50;31.75;21.00
21358;PMS7003;13506;50.852;20.632;2022-08-19T06:08:59;33.50;29.25;19.75
21358;PMS7003;13506;50.852;20.632;2022-08-19T06:11:33;27.75;26.25;17.75
21358;PMS7003;13506;50.852;20.632;2022-08-19T06:14:05;32.50;29.75;20.50
21358;PMS7003;13506;50.852;20.632;2022-08-19T06:16:35;31.25;27.50;18.50
21358;PMS7003;13506;50.852;20.632;2022-08-19T06:19:05;33.25;29.75;19.75
21358;PMS7003;13506;50.852;20.632;2022-08-19T06:21:36;27.50;27.25;19.00
21358;PMS7003;13506;50.852;20.632;2022-08-19T06:24:08;30.75;28.25;18.00
21358;PMS7003;13506;50.852;20.632;2022-08-19T06:26:39;33.25;27.75;19.00
21358;PMS7003;13506;50.852;20.632;2022-08-19T06:29:09;31.25;27.75;17.50
21358;PMS7003;13506;50.852;20.632;2022-08-19T06:31:40;31.50;29.25;19.00
21358;PMS7003;13506;50.852;20.632;2022-08-19T06:34:10;28.50;25.00;18.50
21358;PMS7003;13506;50.852;20.632;2022-08-19T06:36:40;34.50;28.75;18.25
21358;PMS7003;13506;50.852;20.632;2022-08-19T06:39:10;32.50;29.50;18.00
21358;PMS7003;13506;50.852;20.632;2022-08-19T06:41:42;28.75;27.25;19.00
21358;PMS7003;13506;50.852;20.632;2022-08-19T06:44:16;30.50;27.75;18.25
21358;PMS7003;13506;50.852;20.632;2022-08-19T06:46:46;34.00;30.00;20.00
21358;PMS7003;13506;50.852;20.632;2022-08-19T06:49:14;31.25;27.25;19.00
21358;PMS7003;13506;50.852;20.632;2022-08-19T06:51:43;33.50;28.00;19.50
21358;PMS7003;13506;50.852;20.632;2022-08-19T06:54:13;29.50;27.50;18.75
21358;PMS7003;13506;50.852;20.632;2022-08-19T06:56:42;29.75;27.75;18.25
21358;PMS7003;13506;50.852;20.632;2022-08-19T06:59:11;32.50;27.75;18.25
21358;PMS7003;13506;50.852;20.632;2022-08-19T07:01:42;28.00;27.00;18.00
21358;PMS7003;13506;50.852;20.632;2022-08-19T07:04:13;32.50;29.00;18.75
21358;PMS7003;13506;50.852;20.632;2022-08-19T07:06:43;29.75;28.00;18.00
21358;PMS7003;13506;50.852;20.632;2022-08-19T07:09:11;29.00;26.50;17.75
21358;PMS7003;13506;50.852;20.632;2022-08-19T07:11:44;28.50;25.75;17.75
21358;PMS7003;13506;50.852;20.632;2022-08-19T07:14:13;29.50;27.75;17.75
21358;PMS7003;13506;50.852;20.632;2022-08-19T07:16:43;26.75;26.50;17.75
21358;PMS7003;13506;50.852;20.632;2022-08-19T07:19:11;33.75;28.50;18.00
21358;PMS7003;13506;50.852;20.632;2022-08-19T07:21:40;31.25;29.50;18.00
21358;PMS7003;13506;50.852;20.632;2022-08-19T07:24:07;32.00;26.00;17.00
21358;PMS7003;13506;50.852;20.632;2022-08-19T07:26:37;29.75;26.25;18.00
21358;PMS7003;13506;50.852;20.632;2022-08-19T07:29:09;32.00;27.00;17.75
21358;PMS7003;13506;50.852;20.632;2022-08-19T07:31:38;27.00;24.50;16.00
21358;PMS7003;13506;50.852;20.632;2022-08-19T07:34:06;28.50;26.75;17.50
21358;PMS7003;13506;50.852;20.632;2022-08-19T07:36:40;29.00;26.00;17.25
21358;PMS7003;13506;50.852;20.632;2022-08-19T07:39:11;26.75;24.50;15.75
21358;PMS7003;13506;50.852;20.632;2022-08-19T07:41:43;30.50;27.50;18.00
21358;PMS7003;13506;50.852;20.632;2022-08-19T07:44:13;27.50;23.75;16.75
21358;PMS7003;13506;50.852;20.632;2022-08-19T07:46:42;23.25;22.00;14.50
21358;PMS7003;13506;50.852;20.632;2022-08-19T07:49:12;28.00;23.50;17.00
21358;PMS7003;13506;50.852;20.632;2022-08-19T07:51:44;27.00;25.50;18.00
21358;PMS7003;13506;50.852;20.632;2022-08-19T07:54:14;22.00;20.50;14.25
21358;PMS7003;13506;50.852;20.632;2022-08-19T07:56:42;28.25;26.25;17.75
21358;PMS7003;13506;50.852;20.632;2022-08-19T07:59:09;29.50;25.75;16.00
21358;PMS7003;13506;50.852;20.632;2022-08-19T08:01:38;25.75;23.75;15.00
21358;PMS7003;13506;50.852;20.632;2022-08-19T08:04:06;22.75;21.00;15.50
21358;PMS7003;13506;50.852;20.632;2022-08-19T08:06:51;27.00;25.25;15.50
21358;PMS7003;13506;50.852;20.632;2022-08-19T08:09:38;21.50;20.75;13.50
21358;PMS7003;13506;50.852;20.632;2022-08-19T08:12:10;24.25;21.25;15.00
21358;PMS7003;13506;50.852;20.632;2022-08-19T08:14:41;29.00;23.75;15.00
21358;PMS7003;13506;50.852;20.632;2022-08-19T08:17:13;25.50;22.25;15.50
21358;PMS7003;13506;50.852;20.632;2022-08-19T08:19:43;26.75;26.50;16.50
21358;PMS7003;13506;50.852;20.632;2022-08-19T08:22:12;24.75;22.00;15.00
21358;PMS7003;13506;50.852;20.632;2022-08-19T08:25:00;26.00;23.50;16.50
21358;PMS7003;13506;50.852;20.632;2022-08-19T08:27:30;24.50;22.25;13.75
21358;PMS7003;13506;50.852;20.632;2022-08-19T08:29:57;24.50;21.75;14.50
21358;PMS7003;13506;50.852;20.632;2022-08-19T08:32:26;29.25;22.50;15.00
21358;PMS7003;13506;50.852;20.632;2022-08-19T08:34:54;25.00;21.00;14.25
21358;PMS7003;13506;50.852;20.632;2022-08-19T08:37:21;22.50;22.00;15.00
21358;PMS7003;13506;50.852;20.632;2022-08-19T08:39:48;25.00;20.75;12.50
21358;PMS7003;13506;50.852;20.632;2022-08-19T08:42:17;22.75;21.00;14.00
21358;PMS7003;13506;50.852;20.632;2022-08-19T08:44:55;22.00;21.00;14.00
21358;PMS7003;13506;50.852;20.632;2022-08-19T08:47:30;23.00;21.25;15.00
21358;PMS7003;13506;50.852;20.632;2022-08-19T08:50:03;24.50;21.50;14.50
21358;PMS7003;13506;50.852;20.632;2022-08-19T08:52:36;20.00;19.50;13.75
21358;PMS7003;13506;50.852;20.632;2022-08-19T08:55:11;24.00;24.00;16.00
21358;PMS7003;13506;50.852;20.632;2022-08-19T08:57:43;23.25;22.00;14.75
21358;PMS7003;13506;50.852;20.632;2022-08-19T09:00:22;21.50;20.50;15.00
21358;PMS7003;13506;50.852;20.632;2022-08-19T09:02:56;24.50;23.25;15.50
21358;PMS7003;13506;50.852;20.632;2022-08-19T09:05:26;23.50;22.25;15.25
21358;PMS7003;13506;50.852;20.632;2022-08-19T09:08:10;23.75;22.00;14.25
21358;PMS7003;13506;50.852;20.632;2022-08-19T09:10:50;23.75;22.50;13.50
21358;PMS7003;13506;50.852;20.632;2022-08-19T09:13:21;22.50;20.75;14.75
21358;PMS7003;13506;50.852;20.632;2022-08-19T09:15:58;25.75;23.00;15.75
21358;PMS7003;13506;50.852;20.632;2022-08-19T09:18:40;23.00;21.00;15.50
21358;PMS7003;13506;50.852;20.632;2022-08-19T09:21:09;25.25;22.75;16.00
21358;PMS7003;13506;50.852;20.632;2022-08-19T09:23:38;24.50;22.25;14.00
21358;PMS7003;13506;50.852;20.632;2022-08-19T09:26:06;25.75;21.50;13.75
21358;PMS7003;13506;50.852;20.632;2022-08-19T09:28:39;23.25;23.25;15.00
21358;PMS7003;13506;50.852;20.632;2022-08-19T09:31:08;29.75;23.00;17.25
21358;PMS7003;13506;50.852;20.632;2022-08-19T09:33:36;25.25;22.50;15.50
21358;PMS7003;13506;50.852;20.632;2022-08-19T09:36:07;29.75;23.50;17.00
21358;PMS7003;13506;50.852;20.632;2022-08-19T09:38:37;25.25;23.75;15.75
21358;PMS7003;13506;50.852;20.632;2022-08-19T09:41:06;24.50;22.25;15.00
21358;PMS7003;13506;50.852;20.632;2022-08-19T09:43:39;24.50;24.25;15.50
21358;PMS7003;13506;50.852;20.632;2022-08-19T09:46:08;29.75;24.25;15.50
21358;PMS7003;13506;50.852;20.632;2022-08-19T09:48:36;24.00;23.00;16.50
21358;PMS7003;13506;50.852;20.632;2022-08-19T09:51:07;25.25;23.25;16.25
21358;PMS7003;13506;50.852;20.632;2022-08-19T09:53:37;29.25;26.75;18.00
21358;PMS7003;13506;50.852;20.632;2022-08-19T09:56:05;24.75;22.25;14.75
21358;PMS7003;13506;50.852;20.632;2022-08-19T09:58:33;22.25;22.25;15.00
21358;PMS7003;13506;50.852;20.632;2022-08-19T10:01:02;25.25;23.50;15.50
21358;PMS7003;13506;50.852;20.632;2022-08-19T10:03:32;26.00;25.00;17.25
21358;PMS7003;13506;50.852;20.632;2022-08-19T10:06:02;24.75;22.75;16.00
21358;PMS7003;13506;50.852;20.632;2022-08-19T10:08:36;23.75;23.00;15.25
21358;PMS7003;13506;50.852;20.632;2022-08-19T10:11:05;26.50;24.75;16.50
21358;PMS7003;13506;50.852;20.632;2022-08-19T10:13:33;27.25;25.00;17.00
21358;PMS7003;13506;50.852;20.632;2022-08-19T10:16:03;25.50;25.25;17.25
21358;PMS7003;13506;50.852;20.632;2022-08-19T10:18:34;23.75;23.75;15.25
21358;PMS7003;13506;50.852;20.632;2022-08-19T10:21:06;24.50;22.75;15.75
21358;PMS7003;13506;50.852;20.632;2022-08-19T10:23:36;25.25;23.25;16.25
21358;PMS7003;13506;50.852;20.632;2022-08-19T10:26:08;26.00;23.50;15.75
21358;PMS7003;13506;50.852;20.632;2022-08-19T10:28:40;24.25;23.25;16.50
21358;PMS7003;13506;50.852;20.632;2022-08-19T10:31:08;25.00;23.75;16.50
21358;PMS7003;13506;50.852;20.632;2022-08-19T10:33:38;26.50;23.25;15.25
21358;PMS7003;13506;50.852;20.632;2022-08-19T10:36:08;22.25;21.75;16.00
21358;PMS7003;13506;50.852;20.632;2022-08-19T10:38:40;26.25;24.00;16.25
21358;PMS7003;13506;50.852;20.632;2022-08-19T10:41:10;26.75;24.00;16.00
21358;PMS7003;13506;50.852;20.632;2022-08-19T10:43:40;27.00;25.50;17.00
21358;PMS7003;13506;50.852;20.632;2022-08-19T10:46:11;30.00;26.00;17.50
21358;PMS7003;13506;50.852;20.632;2022-08-19T10:48:40;26.50;24.75;15.75
21358;PMS7003;13506;50.852;20.632;2022-08-19T10:51:11;27.75;26.50;17.25
21358;PMS7003;13506;50.852;20.632;2022-08-19T10:53:57;23.00;22.50;16.00
21358;PMS7003;13506;50.852;20.632;2022-08-19T10:56:26;26.25;23.50;16.25
21358;PMS7003;13506;50.852;20.632;2022-08-19T10:59:12;26.25;25.25;16.50
21358;PMS7003;13506;50.852;20.632;2022-08-19T11:01:40;30.25;25.00;15.50
21358;PMS7003;13506;50.852;20.632;2022-08-19T11:04:09;26.25;24.75;17.25
21358;PMS7003;13506;50.852;20.632;2022-08-19T11:06:40;28.00;26.25;17.25
21358;PMS7003;13506;50.852;20.632;2022-08-19T11:09:10;25.25;23.75;16.00
21358;PMS7003;13506;50.852;20.632;2022-08-19T11:11:38;29.75;26.75;17.75
21358;PMS7003;13506;50.852;20.632;2022-08-19T11:14:06;24.25;24.25;16.50
21358;PMS7003;13506;50.852;20.632;2022-08-19T11:16:35;28.25;26.50;17.25
21358;PMS7003;13506;50.852;20.632;2022-08-19T11:19:04;31.25;27.50;17.50
21358;PMS7003;13506;50.852;20.632;2022-08-19T11:21:34;25.75;24.75;18.00
21358;PMS7003;13506;50.852;20.632;2022-08-19T11:24:08;28.25;25.25;17.75
21358;PMS7003;13506;50.852;20.632;2022-08-19T11:26:39;24.00;22.75;17.00
21358;PMS7003;13506;50.852;20.632;2022-08-19T11:29:09;25.25;24.50;17.50
21358;PMS7003;13506;50.852;20.632;2022-08-19T11:31:39;27.25;24.25;16.25
21358;PMS7003;13506;50.852;20.632;2022-08-19T11:34:12;30.50;26.25;17.50
21358;PMS7003;13506;50.852;20.632;2022-08-19T11:36:46;26.25;24.75;16.50
21358;PMS7003;13506;50.852;20.632;2022-08-19T11:39:18;29.25;26.75;17.50
21358;PMS7003;13506;50.852;20.632;2022-08-19T11:41:47;30.25;26.25;17.75
21358;PMS7003;13506;50.852;20.632;2022-08-19T11:44:15;23.25;22.75;16.50
21358;PMS7003;13506;50.852;20.632;2022-08-19T11:46:44;23.75;21.50;15.00
21358;PMS7003;13506;50.852;20.632;2022-08-19T11:49:13;27.75;25.00;17.25
21358;PMS7003;13506;50.852;20.632;2022-08-19T11:51:42;29.75;25.50;15.50
21358;PMS7003;13506;50.852;20.632;2022-08-19T11:54:10;23.75;23.00;15.25
21358;PMS7003;13506;50.852;20.632;2022-08-19T11:56:40;25.00;24.25;16.25
21358;PMS7003;13506;50.852;20.632;2022-08-19T11:59:08;26.00;25.75;17.25
21358;PMS7003;13506;50.852;20.632;2022-08-19T12:01:36;28.00;26.00;17.50
21358;PMS7003;13506;50.852;20.632;2022-08-19T12:04:06;30.25;27.50;17.75
21358;PMS7003;13506;50.852;20.632;2022-08-19T12:06:33;25.75;24.25;17.25
21358;PMS7003;13506;50.852;20.632;2022-08-19T12:09:07;24.25;23.00;15.25
21358;PMS7003;13506;50.852;20.632;2022-08-19T12:11:36;26.75;23.50;16.25
21358;PMS7003;13506;50.852;20.632;2022-08-19T12:14:08;25.25;24.75;17.25
21358;PMS7003;13506;50.852;20.632;2022-08-19T12:16:39;25.75;24.75;16.75
21358;PMS7003;13506;50.852;20.632;2022-08-19T12:19:07;24.25;24.25;17.25
21358;PMS7003;13506;50.852;20.632;2022-08-19T12:21:35;22.75;21.75;15.75
21358;PMS7003;13506;50.852;20.632;2022-08-19T12:24:03;29.25;25.25;17.00
21358;PMS7003;13506;50.852;20.632;2022-08-19T12:26:32;24.50;24.00;16.25
21358;PMS7003;13506;50.852;20.632;2022-08-19T12:29:00;23.00;22.75;15.50
21358;PMS7003;13506;50.852;20.632;2022-08-19T12:31:30;23.75;23.75;15.75
21358;PMS7003;13506;50.852;20.632;2022-08-19T12:33:58;27.75;25.75;16.50
21358;PMS7003;13506;50.852;20.632;2022-08-19T12:36:26;29.75;25.00;17.25
21358;PMS7003;13506;50.852;20.632;2022-08-19T12:38:54;27.25;24.25;17.00
21358;PMS7003;13506;50.852;20.632;2022-08-19T12:41:24;25.50;24.50;16.50
21358;PMS7003;13506;50.852;20.632;2022-08-19T12:43:52;25.25;24.00;15.75
21358;PMS7003;13506;50.852;20.632;2022-08-19T12:46:20;28.00;24.50;16.75
21358;PMS7003;13506;50.852;20.632;2022-08-19T12:48:49;24.75;22.00;16.25
21358;PMS7003;13506;50.852;20.632;2022-08-19T12:51:18;25.25;24.50;16.50
21358;PMS7003;13506;50.852;20.632;2022-08-19T12:53:46;24.75;21.75;15.50
21358;PMS7003;13506;50.852;20.632;2022-08-19T12:56:15;24.50;22.50;16.25
21358;PMS7003;13506;50.852;20.632;2022-08-19T12:58:44;27.50;25.00;17.00
21358;PMS7003;13506;50.852;20.632;2022-08-19T13:01:12;25.25;21.50;14.00
21358;PMS7003;13506;50.852;20.632;2022-08-19T13:03:42;26.50;25.25;16.75
21358;PMS7003;13506;50.852;20.632;2022-08-19T13:06:12;26.75;24.50;17.25
21358;PMS7003;13506;50.852;20.632;2022-08-19T13:08:41;23.00;22.00;15.50
21358;PMS7003;13506;50.852;20.632;2022-08-19T13:11:09;25.75;24.25;17.00
21358;PMS7003;13506;50.852;20.632;2022-08-19T13:13:39;23.75;21.75;16.00
21358;PMS7003;13506;50.852;20.632;2022-08-19T13:16:08;24.00;22.75;15.00
21358;PMS7003;13506;50.852;20.632;2022-08-19T13:18:37;22.50;22.25;15.00
21358;PMS7003;13506;50.852;20.632;2022-08-19T13:21:07;27.75;25.50;15.75
21358;PMS7003;13506;50.852;20.632;2022-08-19T13:23:39;22.00;20.00;14.75
21358;PMS7003;13506;50.852;20.632;2022-08-19T13:26:08;25.75;24.25;15.75
21358;PMS7003;13506;50.852;20.632;2022-08-19T13:28:38;29.25;24.75;15.50
21358;PMS7003;13506;50.852;20.632;2022-08-19T13:31:24;26.50;25.00;15.00
21358;PMS7003;13506;50.852;20.632;2022-08-19T13:34:13;22.00;21.75;15.50
21358;PMS7003;13506;50.852;20.632;2022-08-19T13:36:41;26.25;24.25;16.00
21358;PMS7003;13506;50.852;20.632;2022-08-19T13:39:10;28.50;25.25;17.25
21358;PMS7003;13506;50.852;20.632;2022-08-19T13:41:42;23.50;23.00;17.50
21358;PMS7003;13506;50.852;20.632;2022-08-19T13:44:13;25.25;23.25;14.50
21358;PMS7003;13506;50.852;20.632;2022-08-19T13:46:41;23.75;23.75;16.00
21358;PMS7003;13506;50.852;20.632;2022-08-19T13:49:10;25.50;24.25;16.00
21358;PMS7003;13506;50.852;20.632;2022-08-19T13:51:40;24.00;24.00;16.25